sensor_id;sensor_type;location;lat;lon;timestamp;temperature;humidity
22765;DHT22;11549;50.852;3.816;2023-08-12T00:00:03;21.90;99.90
22765;DHT22;11549;50.852;3.816;2023-08-12T00:02:39;22.00;99.90
22765;DHT22;11549;50.852;3.816;2023-08-12T00:05:08;22.00;99.90
22765;DHT22;11549;50.852;3.816;2023-08-12T00:07:38;21.90;99.90
22765;DHT22;11549;50.852;3.816;2023-08-12T00:10:11;21.90;99.90
22765;DHT22;11549;50.852;3.816;2023-08-12T00:12:40;22.00;99.90
22765;DHT22;11549;50.852;3.816;2023-08-12T00:15:09;21.90;99.90
22765;DHT22;11549;50.852;3.816;2023-08-12T00:17:38;21.80;99.90
22765;DHT22;11549;50.852;3.816;2023-08-12T00:20:09;21.80;99.90
22765;DHT22;11549;50.852;3.816;2023-08-12T00:22:40;21.70;99.90
22765;DHT22;11549;50.852;3.816;2023-08-12T00:25:10;21.70;99.90
22765;DHT22;11549;50.852;3.816;2023-08-12T00:27:38;21.60;99.90
22765;DHT22;11549;50.852;3.816;2023-08-12T00:30:08;21.60;99.90
22765;DHT22;11549;50.852;3.816;2023-08-12T00:32:37;21.50;99.90
22765;DHT22;11549;50.852;3.816;2023-08-12T00:35:06;21.40;99.90
22765;DHT22;11549;50.852;3.816;2023-08-12T00:37:34;21.40;99.90
22765;DHT22;11549;50.852;3.816;2023-08-12T00:40:03;21.40;99.90
22765;DHT22;11549;50.852;3.816;2023-08-12T00:42:33;21.50;99.90
22765;DHT22;11549;50.852;3.816;2023-08-12T00:45:02;21.40;99.90
22765;DHT22;11549;50.852;3.816;2023-08-12T00:47:31;21.40;99.90
22765;DHT22;11549;50.852;3.816;2023-08-12T00:50:00;21.40;99.90
22765;DHT22;11549;50.852;3.816;2023-08-12T00:52:28;21.40;99.90
22765;DHT22;11549;50.852;3.816;2023-08-12T00:54:57;21.30;99.90
22765;DHT22;11549;50.852;3.816;2023-08-12T00:57:26;21.30;99.90
22765;DHT22;11549;50.852;3.816;2023-08-12T00:59:56;21.30;99.90
22765;DHT22;11549;50.852;3.816;2023-08-12T01:02:24;21.30;99.90
22765;DHT22;11549;50.852;3.816;2023-08-12T01:04:56;21.40;99.90
22765;DHT22;11549;50.852;3.816;2023-08-12T01:07:25;21.40;99.90
22765;DHT22;11549;50.852;3.816;2023-08-12T01:09:53;21.40;99.90
22765;DHT22;11549;50.852;3.816;2023-08-12T01:12:26;21.30;99.90
22765;DHT22;11549;50.852;3.816;2023-08-12T01:14:58;21.30;99.90
22765;DHT22;11549;50.852;3.816;2023-08-12T01:17:31;21.30;99.90
22765;DHT22;11549;50.852;3.816;2023-08-12T01:20:03;21.30;99.90
22765;DHT22;11549;50.852;3.816;2023-08-12T01:22:37;21.30;99.90
22765;DHT22;11549;50.852;3.816;2023-08-12T01:25:09;21.40;99.90
22765;DHT22;11549;50.852;3.816;2023-08-12T01:27:37;21.40;99.90
22765;DHT22;11549;50.852;3.816;2023-08-12T01:30:07;21.40;99.90
22765;DHT22;11549;50.852;3.816;2023-08-12T01:32:41;21.40;99.90
22765;DHT22;11549;50.852;3.816;2023-08-12T01:35:16;21.40;99.90
22765;DHT22;11549;50.852;3.816;2023-08-12T01:37:46;21.50;99.90
22765;DHT22;11549;50.852;3.816;2023-08-12T01:40:17;21.40;99.90
22765;DHT22;11549;50.852;3.816;2023-08-12T01:42:48;21.30;99.90
22765;DHT22;11549;50.852;3.816;2023-08-12T01:45:18;21.40;99.90
22765;DHT22;11549;50.852;3.816;2023-08-12T01:47:49;21.30;99.90
22765;DHT22;11549;50.852;3.816;2023-08-12T01:50:18;21.20;99.90
22765;DHT22;11549;50.852;3.816;2023-08-12T01:52:48;21.20;99.90
22765;DHT22;11549;50.852;3.816;2023-08-12T01:55:18;21.20;99.90
22765;DHT22;11549;50.852;3.816;2023-08-12T01:57:47;21.30;99.90
22765;DHT22;11549;50.852;3.816;2023-08-12T02:00:16;21.40;99.90
22765;DHT22;11549;50.852;3.816;2023-08-12T02:02:44;21.50;99.90
22765;DHT22;11549;50.852;3.816;2023-08-12T02:05:15;21.40;99.90
22765;DHT22;11549;50.852;3.816;2023-08-12T02:07:43;21.40;99.90
22765;DHT22;11549;50.852;3.816;2023-08-12T02:10:12;21.30;99.90
22765;DHT22;11549;50.852;3.816;2023-08-12T02:12:43;21.30;99.90
22765;DHT22;11549;50.852;3.816;2023-08-12T02:15:12;21.40;99.90
22765;DHT22;11549;50.852;3.816;2023-08-12T02:17:40;21.30;99.90
22765;DHT22;11549;50.852;3.816;2023-08-12T02:20:09;21.40;99.90
22765;DHT22;11549;50.852;3.816;2023-08-12T02:22:38;21.40;99.90
22765;DHT22;11549;50.852;3.816;2023-08-12T02:25:07;21.40;99.90
22765;DHT22;11549;50.852;3.816;2023-08-12T02:27:36;21.20;99.90
22765;DHT22;11549;50.852;3.816;2023-08-12T02:30:07;21.20;99.90
22765;DHT22;11549;50.852;3.816;2023-08-12T02:32:35;21.10;99.90
22765;DHT22;11549;50.852;3.816;2023-08-12T02:35:05;21.10;99.90
22765;DHT22;11549;50.852;3.816;2023-08-12T02:37:33;21.00;99.90
22765;DHT22;11549;50.852;3.816;2023-08-12T02:40:02;21.10;99.90
22765;DHT22;11549;50.852;3.816;2023-08-12T02:42:32;21.10;99.90
22765;DHT22;11549;50.852;3.816;2023-08-12T02:45:00;20.90;99.90
22765;DHT22;11549;50.852;3.816;2023-08-12T02:47:30;20.90;99.90
22765;DHT22;11549;50.852;3.816;2023-08-12T02:49:58;20.90;99.90
22765;DHT22;11549;50.852;3.816;2023-08-12T02:52:27;20.90;99.90
22765;DHT22;11549;50.852;3.816;2023-08-12T02:54:55;21.00;99.90
22765;DHT22;11549;50.852;3.816;2023-08-12T02:57:25;21.00;99.90
22765;DHT22;11549;50.852;3.816;2023-08-12T02:59:54;20.90;99.90
22765;DHT22;11549;50.852;3.816;2023-08-12T03:02:22;20.80;99.90
22765;DHT22;11549;50.852;3.816;2023-08-12T03:04:53;20.80;99.90
22765;DHT22;11549;50.852;3.816;2023-08-12T03:07:21;20.80;99.90
22765;DHT22;11549;50.852;3.816;2023-08-12T03:09:50;20.80;99.90
22765;DHT22;11549;50.852;3.816;2023-08-12T03:12:18;20.80;99.90
22765;DHT22;11549;50.852;3.816;2023-08-12T03:14:47;20.80;99.90
22765;DHT22;11549;50.852;3.816;2023-08-12T03:17:15;20.80;99.90
22765;DHT22;11549;50.852;3.816;2023-08-12T03:19:44;20.70;99.90
22765;DHT22;11549;50.852;3.816;2023-08-12T03:22:14;20.70;99.90
22765;DHT22;11549;50.852;3.816;2023-08-12T03:24:42;20.70;99.90
22765;DHT22;11549;50.852;3.816;2023-08-12T03:27:11;20.80;99.90
22765;DHT22;11549;50.852;3.816;2023-08-12T03:29:39;20.70;99.90
22765;DHT22;11549;50.852;3.816;2023-08-12T03:32:08;20.80;99.90
22765;DHT22;11549;50.852;3.816;2023-08-12T03:34:37;20.80;99.90
22765;DHT22;11549;50.852;3.816;2023-08-12T03:37:05;20.70;99.90
22765;DHT22;11549;50.852;3.816;2023-08-12T03:39:35;20.70;99.90
22765;DHT22;11549;50.852;3.816;2023-08-12T03:42:04;20.50;99.90
22765;DHT22;11549;50.852;3.816;2023-08-12T03:44:33;20.50;99.90
22765;DHT22;11549;50.852;3.816;2023-08-12T03:47:01;20.50;99.90
22765;DHT22;11549;50.852;3.816;2023-08-12T03:49:30;20.60;99.90
22765;DHT22;11549;50.852;3.816;2023-08-12T03:51:58;20.50;99.90
22765;DHT22;11549;50.852;3.816;2023-08-12T03:54:27;20.40;99.90
22765;DHT22;11549;50.852;3.816;2023-08-12T03:56:57;20.40;99.90
22765;DHT22;11549;50.852;3.816;2023-08-12T03:59:25;20.40;99.90
22765;DHT22;11549;50.852;3.816;2023-08-12T04:01:54;20.40;99.90
22765;DHT22;11549;50.852;3.816;2023-08-12T04:04:22;20.40;99.90
22765;DHT22;11549;50.852;3.816;2023-08-12T04:06:51;20.40;99.90
22765;DHT22;11549;50.852;3.816;2023-08-12T04:09:19;20.30;99.90
22765;DHT22;11549;50.852;3.816;2023-08-12T04:11:48;20.20;99.90
22765;DHT22;11549;50.852;3.816;2023-08-12T04:14:17;20.30;99.90
22765;DHT22;11549;50.852;3.816;2023-08-12T04:16:46;20.40;99.90
22765;DHT22;11549;50.852;3.816;2023-08-12T04:19:15;20.30;99.90
22765;DHT22;11549;50.852;3.816;2023-08-12T04:21:43;20.30;99.90
22765;DHT22;11549;50.852;3.816;2023-08-12T04:24:13;20.30;99.90
22765;DHT22;11549;50.852;3.816;2023-08-12T04:26:41;20.30;99.90
22765;DHT22;11549;50.852;3.816;2023-08-12T04:29:10;20.30;99.90
22765;DHT22;11549;50.852;3.816;2023-08-12T04:31:40;20.30;99.90
22765;DHT22;11549;50.852;3.816;2023-08-12T04:34:09;20.30;99.90
22765;DHT22;11549;50.852;3.816;2023-08-12T04:36:37;20.40;99.90
22765;DHT22;11549;50.852;3.816;2023-08-12T04:39:09;20.40;99.90
22765;DHT22;11549;50.852;3.816;2023-08-12T04:41:38;20.40;99.90
22765;DHT22;11549;50.852;3.816;2023-08-12T04:44:07;20.40;99.90
22765;DHT22;11549;50.852;3.816;2023-08-12T04:46:35;20.40;99.90
22765;DHT22;11549;50.852;3.816;2023-08-12T04:49:05;20.40;99.90
22765;DHT22;11549;50.852;3.816;2023-08-12T04:51:34;20.40;99.90
22765;DHT22;11549;50.852;3.816;2023-08-12T04:54:03;20.40;99.90
22765;DHT22;11549;50.852;3.816;2023-08-12T04:56:31;20.40;99.90
22765;DHT22;11549;50.852;3.816;2023-08-12T04:59:00;20.50;99.90
22765;DHT22;11549;50.852;3.816;2023-08-12T05:01:28;20.50;99.90
22765;DHT22;11549;50.852;3.816;2023-08-12T05:03:57;20.40;99.90
22765;DHT22;11549;50.852;3.816;2023-08-12T05:06:26;20.50;99.90
22765;DHT22;11549;50.852;3.816;2023-08-12T05:08:54;20.50;99.90
22765;DHT22;11549;50.852;3.816;2023-08-12T05:11:23;20.50;99.90
22765;DHT22;11549;50.852;3.816;2023-08-12T05:13:51;20.60;99.90
22765;DHT22;11549;50.852;3.816;2023-08-12T05:16:19;20.60;99.90
22765;DHT22;11549;50.852;3.816;2023-08-12T05:18:48;20.70;99.90
22765;DHT22;11549;50.852;3.816;2023-08-12T05:21:17;20.70;99.90
22765;DHT22;11549;50.852;3.816;2023-08-12T05:23:46;20.80;99.90
22765;DHT22;11549;50.852;3.816;2023-08-12T05:26:15;20.70;99.90
22765;DHT22;11549;50.852;3.816;2023-08-12T05:28:44;20.70;99.90
22765;DHT22;11549;50.852;3.816;2023-08-12T05:31:12;20.80;99.90
22765;DHT22;11549;50.852;3.816;2023-08-12T05:33:40;20.90;99.90
22765;DHT22;11549;50.852;3.816;2023-08-12T05:36:09;20.90;99.90
22765;DHT22;11549;50.852;3.816;2023-08-12T05:38:38;21.00;99.90
22765;DHT22;11549;50.852;3.816;2023-08-12T05:41:07;20.90;99.90
22765;DHT22;11549;50.852;3.816;2023-08-12T05:43:36;20.90;99.90
22765;DHT22;11549;50.852;3.816;2023-08-12T05:46:05;20.90;99.90
22765;DHT22;11549;50.852;3.816;2023-08-12T05:48:33;20.80;99.90
22765;DHT22;11549;50.852;3.816;2023-08-12T05:51:02;20.90;99.90
22765;DHT22;11549;50.852;3.816;2023-08-12T05:53:30;20.80;99.90
22765;DHT22;11549;50.852;3.816;2023-08-12T05:55:59;20.60;99.90
22765;DHT22;11549;50.852;3.816;2023-08-12T05:58:29;20.40;99.90
22765;DHT22;11549;50.852;3.816;2023-08-12T06:00:57;20.20;99.90
22765;DHT22;11549;50.852;3.816;2023-08-12T06:03:26;20.10;99.90
22765;DHT22;11549;50.852;3.816;2023-08-12T06:05:54;19.90;99.90
22765;DHT22;11549;50.852;3.816;2023-08-12T06:08:22;19.80;99.90
22765;DHT22;11549;50.852;3.816;2023-08-12T06:10:51;19.70;99.90
22765;DHT22;11549;50.852;3.816;2023-08-12T06:13:20;19.60;99.90
22765;DHT22;11549;50.852;3.816;2023-08-12T06:15:49;19.70;99.90
22765;DHT22;11549;50.852;3.816;2023-08-12T06:18:18;19.70;99.90
22765;DHT22;11549;50.852;3.816;2023-08-12T06:20:47;19.80;99.90
22765;DHT22;11549;50.852;3.816;2023-08-12T06:23:16;19.70;99.90
22765;DHT22;11549;50.852;3.816;2023-08-12T06:25:44;19.70;99.90
22765;DHT22;11549;50.852;3.816;2023-08-12T06:28:13;19.60;99.90
22765;DHT22;11549;50.852;3.816;2023-08-12T06:30:44;19.50;99.90
22765;DHT22;11549;50.852;3.816;2023-08-12T06:33:16;19.50;99.90
22765;DHT22;11549;50.852;3.816;2023-08-12T06:35:44;19.60;99.90
22765;DHT22;11549;50.852;3.816;2023-08-12T06:38:16;19.50;99.90
22765;DHT22;11549;50.852;3.816;2023-08-12T06:40:46;19.60;99.90
22765;DHT22;11549;50.852;3.816;2023-08-12T06:43:15;19.50;99.90
22765;DHT22;11549;50.852;3.816;2023-08-12T06:45:43;19.50;99.90
22765;DHT22;11549;50.852;3.816;2023-08-12T06:48:12;19.40;99.90
22765;DHT22;11549;50.852;3.816;2023-08-12T06:50:41;19.50;99.90
22765;DHT22;11549;50.852;3.816;2023-08-12T06:53:10;19.40;99.90
22765;DHT22;11549;50.852;3.816;2023-08-12T06:55:44;19.50;99.90
22765;DHT22;11549;50.852;3.816;2023-08-12T06:58:13;19.40;99.90
22765;DHT22;11549;50.852;3.816;2023-08-12T07:00:41;19.40;99.90
22765;DHT22;11549;50.852;3.816;2023-08-12T07:03:10;19.40;99.90
22765;DHT22;11549;50.852;3.816;2023-08-12T07:05:39;19.40;99.90
22765;DHT22;11549;50.852;3.816;2023-08-12T07:08:08;19.50;99.90
22765;DHT22;11549;50.852;3.816;2023-08-12T07:10:38;19.50;99.90
22765;DHT22;11549;50.852;3.816;2023-08-12T07:13:06;19.60;99.90
22765;DHT22;11549;50.852;3.816;2023-08-12T07:15:35;19.70;99.90
22765;DHT22;11549;50.852;3.816;2023-08-12T07:18:04;19.80;99.90
22765;DHT22;11549;50.852;3.816;2023-08-12T07:20:33;19.90;99.90
22765;DHT22;11549;50.852;3.816;2023-08-12T07:23:01;20.00;99.90
22765;DHT22;11549;50.852;3.816;2023-08-12T07:25:31;20.10;99.90
22765;DHT22;11549;50.852;3.816;2023-08-12T07:28:00;20.10;99.90
22765;DHT22;11549;50.852;3.816;2023-08-12T07:30:28;20.20;99.90
22765;DHT22;11549;50.852;3.816;2023-08-12T07:32:57;20.30;99.90
22765;DHT22;11549;50.852;3.816;2023-08-12T07:35:25;20.50;99.90
22765;DHT22;11549;50.852;3.816;2023-08-12T07:37:54;20.60;99.90
22765;DHT22;11549;50.852;3.816;2023-08-12T07:40:22;20.70;99.90
22765;DHT22;11549;50.852;3.816;2023-08-12T07:42:52;21.00;99.90
22765;DHT22;11549;50.852;3.816;2023-08-12T07:45:21;21.20;99.90
22765;DHT22;11549;50.852;3.816;2023-08-12T07:47:51;21.30;99.90
22765;DHT22;11549;50.852;3.816;2023-08-12T07:50:19;21.30;99.90
22765;DHT22;11549;50.852;3.816;2023-08-12T07:52:48;21.20;99.90
22765;DHT22;11549;50.852;3.816;2023-08-12T07:55:16;21.00;99.90
22765;DHT22;11549;50.852;3.816;2023-08-12T07:57:45;21.00;99.90
22765;DHT22;11549;50.852;3.816;2023-08-12T08:00:15;20.90;99.90
22765;DHT22;11549;50.852;3.816;2023-08-12T08:02:44;21.00;99.90
22765;DHT22;11549;50.852;3.816;2023-08-12T08:05:12;21.10;99.90
22765;DHT22;11549;50.852;3.816;2023-08-12T08:07:41;21.30;99.90
22765;DHT22;11549;50.852;3.816;2023-08-12T08:10:10;21.40;99.90
22765;DHT22;11549;50.852;3.816;2023-08-12T08:12:38;21.50;99.90
22765;DHT22;11549;50.852;3.816;2023-08-12T08:15:07;21.60;99.90
22765;DHT22;11549;50.852;3.816;2023-08-12T08:17:37;21.50;99.90
22765;DHT22;11549;50.852;3.816;2023-08-12T08:20:06;21.70;99.90
22765;DHT22;11549;50.852;3.816;2023-08-12T08:22:35;21.90;99.90
22765;DHT22;11549;50.852;3.816;2023-08-12T08:25:04;22.00;99.90
22765;DHT22;11549;50.852;3.816;2023-08-12T08:27:32;22.20;99.90
22765;DHT22;11549;50.852;3.816;2023-08-12T08:30:00;22.20;99.90
22765;DHT22;11549;50.852;3.816;2023-08-12T08:32:30;22.20;99.90
22765;DHT22;11549;50.852;3.816;2023-08-12T08:34:59;22.10;99.90
22765;DHT22;11549;50.852;3.816;2023-08-12T08:37:28;22.00;99.90
22765;DHT22;11549;50.852;3.816;2023-08-12T08:39:56;21.90;99.90
22765;DHT22;11549;50.852;3.816;2023-08-12T08:42:25;21.90;99.90
22765;DHT22;11549;50.852;3.816;2023-08-12T08:44:55;21.90;99.90
22765;DHT22;11549;50.852;3.816;2023-08-12T08:47:26;21.90;99.90
22765;DHT22;11549;50.852;3.816;2023-08-12T08:49:55;21.90;99.90
22765;DHT22;11549;50.852;3.816;2023-08-12T08:52:25;22.10;99.90
22765;DHT22;11549;50.852;3.816;2023-08-12T08:54:54;22.20;99.90
22765;DHT22;11549;50.852;3.816;2023-08-12T08:57:28;22.30;99.90
22765;DHT22;11549;50.852;3.816;2023-08-12T09:00:15;22.50;99.90
22765;DHT22;11549;50.852;3.816;2023-08-12T09:02:46;22.60;99.90
22765;DHT22;11549;50.852;3.816;2023-08-12T09:05:15;22.70;99.90
22765;DHT22;11549;50.852;3.816;2023-08-12T09:07:45;22.80;99.90
22765;DHT22;11549;50.852;3.816;2023-08-12T09:10:14;22.70;99.90
22765;DHT22;11549;50.852;3.816;2023-08-12T09:12:43;22.90;99.90
22765;DHT22;11549;50.852;3.816;2023-08-12T09:15:13;23.20;99.90
22765;DHT22;11549;50.852;3.816;2023-08-12T09:17:44;23.40;99.90
22765;DHT22;11549;50.852;3.816;2023-08-12T09:20:12;23.60;99.90
22765;DHT22;11549;50.852;3.816;2023-08-12T09:22:41;23.80;99.90
22765;DHT22;11549;50.852;3.816;2023-08-12T09:25:12;24.00;99.90
22765;DHT22;11549;50.852;3.816;2023-08-12T09:27:40;24.00;99.90
22765;DHT22;11549;50.852;3.816;2023-08-12T09:30:09;23.90;99.90
22765;DHT22;11549;50.852;3.816;2023-08-12T09:32:40;23.90;99.90
22765;DHT22;11549;50.852;3.816;2023-08-12T09:35:15;23.90;99.90
22765;DHT22;11549;50.852;3.816;2023-08-12T09:37:44;23.90;99.90
22765;DHT22;11549;50.852;3.816;2023-08-12T09:40:14;23.90;99.90
22765;DHT22;11549;50.852;3.816;2023-08-12T09:42:45;24.00;99.90
22765;DHT22;11549;50.852;3.816;2023-08-12T09:45:14;24.00;99.90
22765;DHT22;11549;50.852;3.816;2023-08-12T09:47:43;24.10;99.90
22765;DHT22;11549;50.852;3.816;2023-08-12T09:50:11;24.00;99.90
22765;DHT22;11549;50.852;3.816;2023-08-12T09:52:40;24.00;99.90
22765;DHT22;11549;50.852;3.816;2023-08-12T09:55:11;24.20;99.90
22765;DHT22;11549;50.852;3.816;2023-08-12T09:57:43;24.50;99.90
22765;DHT22;11549;50.852;3.816;2023-08-12T10:00:12;24.70;99.90
22765;DHT22;11549;50.852;3.816;2023-08-12T10:02:45;25.00;99.90
22765;DHT22;11549;50.852;3.816;2023-08-12T10:05:19;24.90;99.90
22765;DHT22;11549;50.852;3.816;2023-08-12T10:07:48;24.90;99.90
22765;DHT22;11549;50.852;3.816;2023-08-12T10:10:16;25.00;99.90
22765;DHT22;11549;50.852;3.816;2023-08-12T10:12:46;25.10;99.90
22765;DHT22;11549;50.852;3.816;2023-08-12T10:15:16;25.30;99.90
22765;DHT22;11549;50.852;3.816;2023-08-12T10:17:44;25.50;99.90
22765;DHT22;11549;50.852;3.816;2023-08-12T10:20:17;25.60;99.90
22765;DHT22;11549;50.852;3.816;2023-08-12T10:22:49;25.90;99.90
22765;DHT22;11549;50.852;3.816;2023-08-12T10:25:21;26.10;99.90
22765;DHT22;11549;50.852;3.816;2023-08-12T10:27:52;26.10;99.90
22765;DHT22;11549;50.852;3.816;2023-08-12T10:30:21;26.20;99.90
22765;DHT22;11549;50.852;3.816;2023-08-12T10:32:49;26.20;99.90
22765;DHT22;11549;50.852;3.816;2023-08-12T10:35:18;26.20;99.90
22765;DHT22;11549;50.852;3.816;2023-08-12T10:37:49;26.60;99.90
22765;DHT22;11549;50.852;3.816;2023-08-12T10:40:22;26.80;99.90
22765;DHT22;11549;50.852;3.816;2023-08-12T10:42:52;27.10;99.90
22765;DHT22;11549;50.852;3.816;2023-08-12T10:45:21;27.40;99.90
22765;DHT22;11549;50.852;3.816;2023-08-12T10:48:09;27.80;99.90
22765;DHT22;11549;50.852;3.816;2023-08-12T10:50:43;28.00;99.90
22765;DHT22;11549;50.852;3.816;2023-08-12T10:53:23;27.80;99.90
22765;DHT22;11549;50.852;3.816;2023-08-12T10:55:58;27.90;99.90
22765;DHT22;11549;50.852;3.816;2023-08-12T10:58:29;28.10;99.90
22765;DHT22;11549;50.852;3.816;2023-08-12T11:00:58;28.00;99.90
22765;DHT22;11549;50.852;3.816;2023-08-12T11:03:32;28.00;99.90
22765;DHT22;11549;50.852;3.816;2023-08-12T11:06:05;28.00;99.90
22765;DHT22;11549;50.852;3.816;2023-08-12T11:08:33;28.00;99.90
22765;DHT22;11549;50.852;3.816;2023-08-12T11:11:02;28.10;99.90
22765;DHT22;11549;50.852;3.816;2023-08-12T11:13:32;28.20;99.90
22765;DHT22;11549;50.852;3.816;2023-08-12T11:16:14;28.40;99.90
22765;DHT22;11549;50.852;3.816;2023-08-12T11:18:46;28.40;99.90
22765;DHT22;11549;50.852;3.816;2023-08-12T11:21:14;28.70;99.90
22765;DHT22;11549;50.852;3.816;2023-08-12T11:23:44;28.90;99.90
22765;DHT22;11549;50.852;3.816;2023-08-12T11:26:13;29.00;99.90
22765;DHT22;11549;50.852;3.816;2023-08-12T11:28:43;29.10;99.90
22765;DHT22;11549;50.852;3.816;2023-08-12T11:31:12;28.90;99.90
22765;DHT22;11549;50.852;3.816;2023-08-12T11:33:41;29.20;99.90
22765;DHT22;11549;50.852;3.816;2023-08-12T11:36:09;29.60;99.90
22765;DHT22;11549;50.852;3.816;2023-08-12T11:38:38;29.70;99.90
22765;DHT22;11549;50.852;3.816;2023-08-12T11:41:07;30.00;99.90
22765;DHT22;11549;50.852;3.816;2023-08-12T11:43:35;30.10;99.90
22765;DHT22;11549;50.852;3.816;2023-08-12T11:46:05;30.40;99.90
22765;DHT22;11549;50.852;3.816;2023-08-12T11:48:34;30.60;99.90
22765;DHT22;11549;50.852;3.816;2023-08-12T11:51:02;30.60;99.90
22765;DHT22;11549;50.852;3.816;2023-08-12T11:53:31;30.70;99.90
22765;DHT22;11549;50.852;3.816;2023-08-12T11:56:00;30.70;99.90
22765;DHT22;11549;50.852;3.816;2023-08-12T11:58:35;30.90;99.90
22765;DHT22;11549;50.852;3.816;2023-08-12T12:01:18;31.00;99.90
22765;DHT22;11549;50.852;3.816;2023-08-12T12:03:50;30.70;99.90
22765;DHT22;11549;50.852;3.816;2023-08-12T12:06:28;30.80;99.90
22765;DHT22;11549;50.852;3.816;2023-08-12T12:09:00;30.80;99.90
22765;DHT22;11549;50.852;3.816;2023-08-12T12:11:31;31.10;99.90
22765;DHT22;11549;50.852;3.816;2023-08-12T12:14:03;31.40;99.90
22765;DHT22;11549;50.852;3.816;2023-08-12T12:16:41;31.60;99.90
22765;DHT22;11549;50.852;3.816;2023-08-12T12:19:14;31.70;98.60
22765;DHT22;11549;50.852;3.816;2023-08-12T12:21:45;31.50;99.40
22765;DHT22;11549;50.852;3.816;2023-08-12T12:24:15;31.60;99.90
22765;DHT22;11549;50.852;3.816;2023-08-12T12:26:44;31.60;99.70
22765;DHT22;11549;50.852;3.816;2023-08-12T12:29:14;31.50;98.50
22765;DHT22;11549;50.852;3.816;2023-08-12T12:31:43;31.10;98.30
22765;DHT22;11549;50.852;3.816;2023-08-12T12:34:12;31.00;99.70
22765;DHT22;11549;50.852;3.816;2023-08-12T12:36:41;30.90;99.50
22765;DHT22;11549;50.852;3.816;2023-08-12T12:39:10;30.90;99.00
22765;DHT22;11549;50.852;3.816;2023-08-12T12:41:39;30.70;98.20
22765;DHT22;11549;50.852;3.816;2023-08-12T12:44:07;30.60;99.80
22765;DHT22;11549;50.852;3.816;2023-08-12T12:46:36;30.60;99.90
22765;DHT22;11549;50.852;3.816;2023-08-12T12:49:06;30.60;99.60
22765;DHT22;11549;50.852;3.816;2023-08-12T12:51:34;30.60;98.50
22765;DHT22;11549;50.852;3.816;2023-08-12T12:54:03;30.60;97.60
22765;DHT22;11549;50.852;3.816;2023-08-12T12:56:31;30.50;97.20
22765;DHT22;11549;50.852;3.816;2023-08-12T12:59:00;30.40;97.60
22765;DHT22;11549;50.852;3.816;2023-08-12T13:01:28;30.30;96.50
22765;DHT22;11549;50.852;3.816;2023-08-12T13:03:57;29.80;96.50
22765;DHT22;11549;50.852;3.816;2023-08-12T13:06:27;29.30;97.80
22765;DHT22;11549;50.852;3.816;2023-08-12T13:08:55;28.90;98.20
22765;DHT22;11549;50.852;3.816;2023-08-12T13:11:24;28.80;98.50
22765;DHT22;11549;50.852;3.816;2023-08-12T13:13:52;28.90;99.00
22765;DHT22;11549;50.852;3.816;2023-08-12T13:16:22;28.90;98.50
22765;DHT22;11549;50.852;3.816;2023-08-12T13:18:50;29.00;98.30
22765;DHT22;11549;50.852;3.816;2023-08-12T13:21:18;29.20;98.30
22765;DHT22;11549;50.852;3.816;2023-08-12T13:23:48;29.50;99.90
22765;DHT22;11549;50.852;3.816;2023-08-12T13:26:17;29.60;97.60
22765;DHT22;11549;50.852;3.816;2023-08-12T13:28:46;29.60;96.90
22765;DHT22;11549;50.852;3.816;2023-08-12T13:31:14;29.40;96.20
22765;DHT22;11549;50.852;3.816;2023-08-12T13:33:43;29.30;96.00
22765;DHT22;11549;50.852;3.816;2023-08-12T13:36:12;28.90;96.70
22765;DHT22;11549;50.852;3.816;2023-08-12T13:38:40;28.90;97.00
22765;DHT22;11549;50.852;3.816;2023-08-12T13:41:10;28.60;96.50
22765;DHT22;11549;50.852;3.816;2023-08-12T13:43:39;28.30;96.40
22765;DHT22;11549;50.852;3.816;2023-08-12T13:46:07;28.20;97.30
22765;DHT22;11549;50.852;3.816;2023-08-12T13:48:36;28.30;97.10
22765;DHT22;11549;50.852;3.816;2023-08-12T13:51:05;28.40;97.20
22765;DHT22;11549;50.852;3.816;2023-08-12T13:53:34;28.50;98.10
22765;DHT22;11549;50.852;3.816;2023-08-12T13:56:02;28.80;97.70
22765;DHT22;11549;50.852;3.816;2023-08-12T13:58:32;28.90;98.10
22765;DHT22;11549;50.852;3.816;2023-08-12T14:01:01;28.80;97.20
22765;DHT22;11549;50.852;3.816;2023-08-12T14:03:29;28.80;96.70
22765;DHT22;11549;50.852;3.816;2023-08-12T14:05:59;28.70;96.30
22765;DHT22;11549;50.852;3.816;2023-08-12T14:08:28;28.60;95.70
22765;DHT22;11549;50.852;3.816;2023-08-12T14:10:56;28.40;97.00
22765;DHT22;11549;50.852;3.816;2023-08-12T14:13:24;28.20;97.30
22765;DHT22;11549;50.852;3.816;2023-08-12T14:15:54;28.20;99.00
22765;DHT22;11549;50.852;3.816;2023-08-12T14:18:22;28.10;97.40
22765;DHT22;11549;50.852;3.816;2023-08-12T14:20:51;27.90;97.90
22765;DHT22;11549;50.852;3.816;2023-08-12T14:23:20;27.90;97.50
22765;DHT22;11549;50.852;3.816;2023-08-12T14:25:48;27.90;96.60
22765;DHT22;11549;50.852;3.816;2023-08-12T14:28:17;27.80;97.40
22765;DHT22;11549;50.852;3.816;2023-08-12T14:30:46;27.90;98.60
22765;DHT22;11549;50.852;3.816;2023-08-12T14:33:16;28.00;99.10
22765;DHT22;11549;50.852;3.816;2023-08-12T14:35:44;28.10;97.80
22765;DHT22;11549;50.852;3.816;2023-08-12T14:38:13;28.30;97.40
22765;DHT22;11549;50.852;3.816;2023-08-12T14:40:41;28.40;96.30
22765;DHT22;11549;50.852;3.816;2023-08-12T14:43:09;28.40;95.70
22765;DHT22;11549;50.852;3.816;2023-08-12T14:45:38;28.10;96.20
22765;DHT22;11549;50.852;3.816;2023-08-12T14:48:07;28.10;95.80
22765;DHT22;11549;50.852;3.816;2023-08-12T14:50:37;27.80;96.60
22765;DHT22;11549;50.852;3.816;2023-08-12T14:53:05;27.70;95.60
22765;DHT22;11549;50.852;3.816;2023-08-12T14:55:33;27.70;95.80
22765;DHT22;11549;50.852;3.816;2023-08-12T14:58:02;27.50;94.80
22765;DHT22;11549;50.852;3.816;2023-08-12T15:00:30;27.40;95.80
22765;DHT22;11549;50.852;3.816;2023-08-12T15:03:00;27.40;97.10
22765;DHT22;11549;50.852;3.816;2023-08-12T15:05:29;27.50;94.40
22765;DHT22;11549;50.852;3.816;2023-08-12T15:07:59;27.40;95.40
22765;DHT22;11549;50.852;3.816;2023-08-12T15:10:31;27.20;94.40
22765;DHT22;11549;50.852;3.816;2023-08-12T15:12:59;27.00;97.30
22765;DHT22;11549;50.852;3.816;2023-08-12T15:15:28;27.20;96.30
22765;DHT22;11549;50.852;3.816;2023-08-12T15:17:56;27.30;96.30
22765;DHT22;11549;50.852;3.816;2023-08-12T15:20:24;27.40;94.60
22765;DHT22;11549;50.852;3.816;2023-08-12T15:22:53;27.40;95.60
22765;DHT22;11549;50.852;3.816;2023-08-12T15:25:23;27.40;96.00
22765;DHT22;11549;50.852;3.816;2023-08-12T15:27:52;27.00;95.70
22765;DHT22;11549;50.852;3.816;2023-08-12T15:30:20;26.90;96.60
22765;DHT22;11549;50.852;3.816;2023-08-12T15:32:48;26.90;97.80
22765;DHT22;11549;50.852;3.816;2023-08-12T15:35:17;27.00;96.50
22765;DHT22;11549;50.852;3.816;2023-08-12T15:37:45;27.00;96.30
22765;DHT22;11549;50.852;3.816;2023-08-12T15:40:14;26.70;97.30
22765;DHT22;11549;50.852;3.816;2023-08-12T15:42:44;26.70;97.60